createdAt,value
2018-04-09T00:01:11.253Z,6.28
2018-04-09T00:03:38.712Z,6.25
2018-04-09T00:06:06.180Z,6.12
2018-04-09T00:08:33.621Z,6.18
2018-04-09T00:11:01.070Z,6.30
2018-04-09T00:13:29.292Z,6.32
2018-04-09T00:15:56.734Z,7.43
2018-04-09T00:18:24.183Z,6.68
2018-04-09T00:20:51.632Z,6.62
2018-04-09T00:23:19.866Z,7.05
2018-04-09T00:25:47.326Z,6.70
2018-04-09T00:28:14.787Z,6.60
2018-04-09T00:30:42.238Z,6.70
2018-04-09T00:33:09.721Z,6.65
2018-04-09T00:35:37.181Z,6.70
2018-04-09T00:38:04.646Z,6.20
2018-04-09T00:40:32.105Z,5.82
2018-04-09T00:42:59.552Z,6.10
2018-04-09T00:45:27.029Z,6.00
2018-04-09T00:47:54.491Z,6.20
2018-04-09T00:50:21.977Z,5.50
2018-04-09T00:52:49.416Z,5.93
2018-04-09T00:55:16.882Z,5.95
2018-04-09T00:57:45.166Z,6.20
2018-04-09T01:00:12.623Z,5.80
2018-04-09T01:02:40.077Z,6.50
2018-04-09T01:05:07.547Z,6.57
2018-04-09T01:07:35.015Z,6.80
2018-04-09T01:10:02.519Z,6.75
2018-04-09T01:12:30.762Z,7.90
2018-04-09T01:14:58.230Z,7.57
2018-04-09T01:17:25.694Z,7.07
2018-04-09T01:19:53.150Z,7.05
2018-04-09T01:22:20.632Z,7.55
2018-04-09T01:24:48.086Z,7.62
2018-04-09T01:27:15.524Z,7.75
2018-04-09T01:29:43.075Z,7.65
2018-04-09T01:32:10.515Z,8.20
2018-04-09T01:34:38.890Z,8.18
2018-04-09T01:37:07.144Z,7.93
2018-04-09T01:39:34.624Z,7.60
2018-04-09T01:42:02.838Z,7.93
2018-04-09T01:44:30.301Z,7.45
2018-04-09T01:46:57.763Z,7.57
2018-04-09T01:49:25.199Z,7.12
2018-04-09T01:51:53.428Z,7.50
2018-04-09T01:54:20.865Z,6.90
2018-04-09T01:56:48.314Z,6.70
2018-04-09T01:59:15.774Z,7.43
2018-04-09T02:01:44.004Z,7.20
2018-04-09T02:04:11.465Z,6.87
2018-04-09T02:06:38.914Z,6.97
2018-04-09T02:09:06.361Z,7.07
2018-04-09T02:11:33.820Z,7.75
2018-04-09T02:14:01.270Z,7.20
2018-04-09T02:16:28.746Z,7.05
2018-04-09T02:18:56.206Z,7.10
2018-04-09T02:21:23.667Z,7.62
2018-04-09T02:23:51.117Z,7.32
2018-04-09T02:26:18.575Z,7.50
2018-04-09T02:28:46.782Z,6.62
2018-04-09T02:31:14.241Z,6.95
2018-04-09T02:33:41.721Z,7.20
2018-04-09T02:36:09.180Z,7.00
2018-04-09T02:38:36.649Z,7.65
2018-04-09T02:41:04.107Z,7.62
2018-04-09T02:43:31.570Z,7.07
2018-04-09T02:45:59.030Z,6.45
2018-04-09T02:48:26.479Z,7.60
2018-04-09T02:50:53.940Z,8.15
2018-04-09T02:53:21.399Z,7.50
2018-04-09T02:55:48.875Z,7.30
2018-04-09T02:58:16.330Z,7.17
2018-04-09T03:00:43.804Z,7.20
2018-04-09T03:03:11.249Z,6.83
2018-04-09T03:05:38.681Z,7.18
2018-04-09T03:08:06.134Z,6.93
2018-04-09T03:10:33.579Z,7.37
2018-04-09T03:13:01.828Z,7.10
2018-04-09T03:15:29.298Z,6.60
2018-04-09T03:17:56.748Z,7.28
2018-04-09T03:20:24.208Z,8.30
2018-04-09T03:22:51.667Z,8.53
2018-04-09T03:25:19.128Z,8.33
2018-04-09T03:27:46.650Z,8.50
2018-04-09T03:30:14.093Z,8.37
2018-04-09T03:32:42.356Z,8.13
2018-04-09T03:35:09.828Z,8.30
2018-04-09T03:37:37.274Z,8.10
2018-04-09T03:40:04.736Z,8.00
2018-04-09T03:42:32.218Z,8.80
2018-04-09T03:44:59.652Z,8.10
2018-04-09T03:47:27.128Z,8.07
2018-04-09T03:49:54.577Z,7.67
2018-04-09T03:52:22.039Z,7.50
2018-04-09T03:54:49.492Z,7.60
2018-04-09T03:57:16.951Z,8.33
2018-04-09T03:59:44.402Z,8.30
2018-04-09T04:02:12.634Z,8.20
2018-04-09T04:04:40.839Z,8.47
2018-04-09T04:07:08.291Z,7.57
2018-04-09T04:09:36.524Z,7.67
2018-04-09T04:12:03.976Z,7.00
2018-04-09T04:14:31.438Z,7.90
2018-04-09T04:17:10.680Z,7.77
2018-04-09T04:19:50.019Z,7.53
2018-04-09T04:22:17.466Z,7.63
2018-04-09T04:24:45.047Z,7.40
2018-04-09T04:27:12.511Z,7.50
2018-04-09T04:29:39.963Z,7.77
2018-04-09T04:32:07.425Z,8.30
2018-04-09T04:34:34.883Z,8.00
2018-04-09T04:37:02.334Z,8.47
2018-04-09T04:39:29.931Z,8.27
2018-04-09T04:41:57.388Z,9.30
2018-04-09T04:44:24.848Z,8.27
2018-04-09T04:46:52.293Z,8.07
2018-04-09T04:49:19.762Z,9.13
2018-04-09T04:51:47.203Z,8.17
2018-04-09T04:54:14.648Z,8.10
2018-04-09T04:56:42.104Z,9.50
2018-04-09T04:59:09.580Z,8.53
2018-04-09T05:01:37.029Z,8.67
2018-04-09T05:04:04.508Z,9.37
2018-04-09T05:06:31.992Z,9.70
2018-04-09T05:08:59.462Z,8.50
2018-04-09T05:11:26.915Z,8.70
2018-04-09T05:13:55.176Z,10.23
2018-04-09T05:16:22.643Z,9.60
2018-04-09T05:18:50.129Z,8.97
2018-04-09T05:21:17.566Z,8.63
2018-04-09T05:23:45.026Z,8.93
2018-04-09T05:26:12.473Z,7.33
2018-04-09T05:28:39.925Z,8.00
2018-04-09T05:31:08.169Z,7.57
2018-04-09T05:33:35.623Z,6.93
2018-04-09T05:36:07.647Z,7.70
2018-04-09T05:38:35.106Z,7.13
2018-04-09T05:41:03.317Z,7.53
2018-04-09T05:43:30.792Z,7.20
2018-04-09T05:45:58.237Z,8.03
2018-04-09T05:48:25.674Z,6.80
2018-04-09T05:50:53.128Z,6.67
2018-04-09T05:53:21.341Z,6.60
2018-04-09T05:55:48.784Z,7.30
2018-04-09T05:58:16.237Z,6.97
2018-04-09T06:00:44.471Z,6.50
2018-04-09T06:03:11.945Z,6.67
2018-04-09T06:05:39.428Z,7.10
2018-04-09T06:08:07.641Z,7.47
2018-04-09T06:10:35.098Z,6.67
2018-04-09T06:13:02.546Z,8.53
2018-04-09T06:15:29.996Z,7.77
2018-04-09T06:17:58.231Z,7.17
2018-04-09T06:20:25.678Z,7.07
2018-04-09T06:22:53.138Z,6.67
2018-04-09T06:25:20.584Z,7.23
2018-04-09T06:27:48.036Z,7.03
2018-04-09T06:30:15.497Z,6.90
2018-04-09T06:32:43.688Z,7.28
2018-04-09T06:35:11.127Z,7.40
2018-04-09T06:37:39.357Z,7.13
2018-04-09T06:40:06.800Z,6.57
2018-04-09T06:42:34.258Z,7.60
2018-04-09T06:45:01.724Z,7.37
2018-04-09T06:47:29.178Z,8.33
2018-04-09T06:49:56.656Z,7.10
2018-04-09T06:52:24.108Z,7.35
2018-04-09T06:54:51.575Z,7.60
2018-04-09T06:57:19.031Z,7.87
2018-04-09T06:59:46.474Z,7.93
2018-04-09T07:02:14.720Z,8.38
2018-04-09T07:04:42.171Z,8.10
2018-04-09T07:07:09.702Z,9.15
2018-04-09T07:09:37.142Z,8.60
2018-04-09T07:12:05.373Z,9.63
2018-04-09T07:14:32.814Z,10.90
2018-04-09T07:17:00.278Z,14.53
2018-04-09T07:19:28.446Z,12.77
2018-04-09T07:21:55.918Z,10.90
2018-04-09T07:24:23.371Z,10.00
2018-04-09T07:26:50.868Z,9.73
2018-04-09T07:29:18.327Z,9.37
2018-04-09T07:31:45.788Z,9.30
2018-04-09T07:34:13.234Z,8.20
2018-04-09T07:36:40.682Z,8.67
2018-04-09T07:39:08.135Z,8.83
2018-04-09T07:41:35.623Z,8.02
2018-04-09T07:44:03.101Z,8.35
2018-04-09T07:46:30.727Z,8.68
2018-04-09T07:48:58.175Z,7.28
2018-04-09T07:51:26.398Z,7.75
2018-04-09T07:53:53.860Z,8.10
2018-04-09T07:56:21.351Z,7.40
2018-04-09T07:58:48.808Z,7.70
2018-04-09T08:01:16.254Z,7.10
2018-04-09T08:03:43.709Z,7.47
2018-04-09T08:06:13.080Z,9.00
2018-04-09T08:08:41.301Z,8.50
2018-04-09T08:11:08.842Z,9.02
2018-04-09T08:13:36.293Z,8.55
2018-04-09T08:16:03.727Z,8.10
2018-04-09T08:18:31.959Z,8.90
2018-04-09T08:20:59.436Z,8.52
2018-04-09T08:23:26.889Z,9.73
2018-04-09T08:25:54.629Z,9.13
2018-04-09T08:28:22.090Z,9.68
2018-04-09T08:30:49.539Z,9.88
2018-04-09T08:33:17.758Z,9.70
2018-04-09T08:35:45.216Z,9.13
2018-04-09T08:38:12.687Z,8.02
2018-04-09T08:40:40.131Z,8.07
2018-04-09T08:43:07.592Z,6.90
2018-04-09T08:45:35.022Z,8.10
2018-04-09T08:48:03.275Z,7.40
2018-04-09T08:50:30.748Z,6.50
2018-04-09T08:52:58.195Z,6.22
2018-04-09T08:55:25.648Z,6.82
2018-04-09T08:57:53.111Z,6.40
2018-04-09T09:00:20.552Z,7.10
2018-04-09T09:02:48.034Z,6.10
2018-04-09T09:05:16.632Z,6.00
2018-04-09T09:07:44.086Z,6.03
2018-04-09T09:10:11.543Z,5.82
2018-04-09T09:12:38.981Z,6.12
2018-04-09T09:15:06.448Z,7.00
2018-04-09T09:17:33.911Z,6.60
2018-04-09T09:20:01.390Z,6.43
2018-04-09T09:22:28.857Z,6.53
2018-04-09T09:24:56.347Z,6.85
2018-04-09T09:27:23.781Z,7.10
2018-04-09T09:29:51.245Z,7.62
2018-04-09T09:32:18.708Z,7.00
2018-04-09T09:34:46.163Z,6.57
2018-04-09T09:37:13.608Z,7.25
2018-04-09T09:39:41.078Z,7.00
2018-04-09T09:42:08.529Z,6.37
2018-04-09T09:44:35.977Z,6.87
2018-04-09T09:47:03.424Z,6.62
2018-04-09T09:49:31.653Z,6.82
2018-04-09T09:51:59.095Z,6.30
2018-04-09T09:54:26.553Z,7.03
2018-04-09T09:56:54.007Z,7.05
2018-04-09T09:59:21.451Z,7.12
2018-04-09T10:01:49.684Z,6.70
2018-04-09T10:04:17.137Z,7.60
2018-04-09T10:06:45.597Z,7.10
2018-04-09T10:09:13.064Z,6.70
2018-04-09T10:11:40.513Z,7.12
2018-04-09T10:14:08.747Z,6.90
2018-04-09T10:16:36.220Z,7.00
2018-04-09T10:19:03.664Z,7.35
2018-04-09T10:21:31.128Z,6.72
2018-04-09T10:23:58.570Z,7.53
2018-04-09T10:26:26.032Z,6.70
2018-04-09T10:28:53.488Z,6.28
2018-04-09T10:31:20.934Z,6.47
2018-04-09T10:33:48.386Z,6.25
2018-04-09T10:36:16.634Z,5.45
2018-04-09T10:38:44.063Z,5.37
2018-04-09T10:41:11.552Z,5.50
2018-04-09T10:43:38.997Z,5.60
2018-04-09T10:46:06.451Z,5.47
2018-04-09T10:48:33.914Z,5.15
2018-04-09T10:51:01.397Z,5.20
2018-04-09T10:53:28.852Z,5.00
2018-04-09T10:55:56.290Z,5.57
2018-04-09T10:58:23.730Z,5.97
2018-04-09T11:00:51.941Z,5.40
2018-04-09T11:03:19.411Z,5.35
2018-04-09T11:05:46.881Z,5.28
2018-04-09T11:08:14.325Z,5.10
2018-04-09T11:10:41.786Z,4.75
2018-04-09T11:13:09.217Z,4.72
2018-04-09T11:15:37.465Z,5.45
2018-04-09T11:18:04.916Z,4.75
2018-04-09T11:20:32.367Z,4.82
2018-04-09T11:22:59.810Z,5.28
2018-04-09T11:25:27.281Z,5.20
2018-04-09T11:27:54.738Z,4.32
2018-04-09T11:30:23.709Z,4.40
2018-04-09T11:32:51.936Z,4.57
2018-04-09T11:35:19.387Z,4.65
2018-04-09T11:37:46.840Z,4.20
2018-04-09T11:40:14.285Z,4.57
2018-04-09T11:42:41.741Z,4.40
2018-04-09T11:45:09.943Z,4.30
2018-04-09T11:47:37.402Z,4.70
2018-04-09T11:50:04.845Z,4.20
2018-04-09T11:52:33.056Z,5.07
2018-04-09T11:55:00.503Z,4.87
2018-04-09T11:57:28.026Z,4.75
2018-04-09T11:59:55.785Z,4.85
2018-04-09T12:02:23.352Z,4.87
2018-04-09T12:04:50.870Z,5.40
2018-04-09T12:07:18.316Z,4.82
2018-04-09T12:09:45.801Z,4.75
2018-04-09T12:12:13.360Z,5.03
2018-04-09T12:14:40.871Z,4.85
2018-04-09T12:17:10.342Z,5.10
2018-04-09T12:19:38.669Z,4.80
2018-04-09T12:22:06.189Z,5.60
2018-04-09T12:24:33.850Z,5.30
2018-04-09T12:27:01.649Z,5.22
2018-04-09T12:29:29.115Z,5.22
2018-04-09T12:31:56.739Z,5.65
2018-04-09T12:34:25.233Z,4.65
2018-04-09T12:36:52.726Z,4.80
2018-04-09T12:39:20.197Z,5.00
2018-04-09T12:41:47.655Z,5.60
2018-04-09T12:44:15.133Z,5.37
2018-04-09T12:46:42.610Z,5.95
2018-04-09T12:49:10.835Z,5.30
2018-04-09T12:51:38.437Z,5.90
2018-04-09T12:54:05.883Z,4.65
2018-04-09T12:56:33.372Z,6.60
2018-04-09T12:59:00.824Z,15.85
2018-04-09T13:01:28.305Z,5.70
2018-04-09T13:03:56.567Z,5.20
2018-04-09T13:06:24.822Z,5.25
2018-04-09T13:08:52.319Z,5.43
2018-04-09T13:11:20.992Z,5.10
2018-04-09T13:13:48.454Z,4.85
2018-04-09T13:16:15.914Z,4.55
2018-04-09T13:18:43.370Z,4.78
2018-04-09T13:21:10.909Z,4.80
2018-04-09T13:23:38.381Z,4.40
2018-04-09T13:26:05.834Z,4.50
2018-04-09T13:28:33.336Z,4.78
2018-04-09T13:31:00.802Z,4.28
2018-04-09T13:33:29.120Z,4.00
2018-04-09T13:35:56.568Z,4.53
2018-04-09T13:38:24.811Z,4.00
2018-04-09T13:40:52.267Z,4.30
2018-04-09T13:43:19.717Z,4.62
2018-04-09T13:45:47.313Z,3.72
2018-04-09T13:48:14.809Z,4.07
2018-04-09T13:50:43.037Z,4.28
2018-04-09T13:53:11.298Z,4.32
2018-04-09T13:55:38.781Z,3.80
2018-04-09T13:58:06.236Z,3.97
2018-04-09T14:00:33.692Z,3.95
2018-04-09T14:03:01.161Z,4.03
2018-04-09T14:05:28.652Z,3.37
2018-04-09T14:07:57.052Z,4.12
2018-04-09T14:10:25.396Z,4.00
2018-04-09T14:12:52.860Z,4.03
2018-04-09T14:15:20.314Z,4.32
2018-04-09T14:17:47.754Z,3.58
2018-04-09T14:20:15.207Z,3.70
2018-04-09T14:22:42.651Z,3.55
2018-04-09T14:25:11.544Z,3.97
2018-04-09T14:27:38.990Z,3.97
2018-04-09T14:30:06.439Z,3.75
2018-04-09T14:32:33.892Z,3.70
2018-04-09T14:35:01.375Z,3.65
2018-04-09T14:37:28.832Z,3.72
2018-04-09T14:39:56.292Z,3.65
2018-04-09T14:42:23.735Z,4.03
2018-04-09T14:44:51.210Z,3.72
2018-04-09T14:47:19.406Z,3.50
2018-04-09T14:49:46.857Z,3.70
2018-04-09T14:52:14.309Z,3.78
2018-04-09T14:54:41.772Z,3.35
2018-04-09T14:57:09.215Z,3.85
2018-04-09T14:59:36.665Z,3.80
2018-04-09T15:02:04.126Z,3.42
2018-04-09T15:04:31.586Z,3.92
2018-04-09T15:06:59.073Z,3.60
2018-04-09T15:09:26.525Z,3.67
2018-04-09T15:11:53.983Z,3.30
2018-04-09T15:14:21.467Z,3.12
2018-04-09T15:16:48.937Z,3.75
2018-04-09T15:19:16.396Z,3.25
2018-04-09T15:21:43.837Z,3.30
2018-04-09T15:24:11.292Z,3.30
2018-04-09T15:26:39.761Z,3.50
2018-04-09T15:29:07.318Z,3.33
2018-04-09T15:31:34.811Z,3.60
2018-04-09T15:34:02.378Z,3.42
2018-04-09T15:36:29.855Z,3.15
2018-04-09T15:38:57.322Z,2.92
2018-04-09T15:41:24.794Z,3.08
2018-04-09T15:43:52.244Z,3.35
2018-04-09T15:46:19.706Z,3.00
2018-04-09T15:48:47.159Z,3.47
2018-04-09T15:51:14.814Z,3.17
2018-04-09T15:53:42.247Z,3.20
2018-04-09T15:56:10.465Z,3.55
2018-04-09T15:58:37.917Z,3.10
2018-04-09T16:01:05.788Z,3.75
2018-04-09T16:03:33.313Z,3.17
2018-04-09T16:06:00.822Z,3.22
2018-04-09T16:08:28.324Z,3.28
2018-04-09T16:10:56.569Z,3.10
2018-04-09T16:13:24.042Z,3.55
2018-04-09T16:15:51.505Z,3.58
2018-04-09T16:18:18.959Z,3.22
2018-04-09T16:20:46.409Z,3.03
2018-04-09T16:23:13.876Z,3.12
2018-04-09T16:25:41.346Z,3.10
2018-04-09T16:28:08.814Z,3.45
2018-04-09T16:30:36.409Z,2.97
2018-04-09T16:33:03.988Z,3.78
2018-04-09T16:35:31.438Z,3.55
2018-04-09T16:37:58.900Z,3.35
2018-04-09T16:40:26.343Z,3.40
2018-04-09T16:42:53.791Z,3.70
2018-04-09T16:45:22.542Z,3.25
2018-04-09T16:47:51.265Z,4.70
2018-04-09T16:50:19.002Z,5.50
2018-04-09T16:52:47.312Z,7.40
2018-04-09T16:55:14.759Z,7.95
2018-04-09T16:57:42.219Z,16.52
2018-04-09T17:00:09.687Z,15.07
2018-04-09T17:02:37.128Z,11.82
2018-04-09T17:05:05.386Z,13.45
2018-04-09T17:07:33.821Z,9.82
2018-04-09T17:10:01.294Z,8.00
2018-04-09T17:12:28.747Z,7.07
2018-04-09T17:14:56.241Z,7.28
2018-04-09T17:17:23.683Z,6.87
2018-04-09T17:19:51.136Z,6.57
2018-04-09T17:25:09.905Z,7.45
2018-04-09T17:27:37.365Z,8.27
2018-04-09T17:30:04.837Z,7.55
2018-04-09T17:32:32.314Z,8.38
2018-04-09T17:35:01.676Z,7.07
2018-04-09T17:37:29.134Z,7.93
2018-04-09T17:39:57.364Z,7.62
2018-04-09T17:42:24.811Z,6.87
2018-04-09T17:44:52.271Z,6.05
2018-04-09T17:47:19.813Z,6.30
2018-04-09T17:49:47.292Z,6.68
2018-04-09T17:52:14.778Z,7.57
2018-04-09T17:54:42.255Z,7.72
2018-04-09T17:57:09.703Z,8.32
2018-04-09T17:59:37.183Z,7.47
2018-04-09T18:02:04.628Z,7.47
2018-04-09T18:04:32.267Z,8.38
2018-04-09T18:06:59.739Z,10.38
2018-04-09T18:09:27.939Z,8.85
2018-04-09T18:11:55.401Z,8.52
2018-04-09T18:14:23.654Z,15.85
2018-04-09T18:16:51.200Z,14.13
2018-04-09T18:19:18.666Z,10.27
2018-04-09T18:21:46.112Z,8.00
2018-04-09T18:24:14.381Z,7.85
2018-04-09T18:26:42.682Z,13.23
2018-04-09T18:29:11.565Z,8.63
2018-04-09T18:31:39.903Z,7.10
2018-04-09T18:34:07.376Z,8.00
2018-04-09T18:36:34.874Z,9.18
2018-04-09T18:39:03.131Z,9.07
2018-04-09T18:41:30.609Z,13.38
2018-04-09T18:43:58.068Z,10.93
2018-04-09T18:46:25.520Z,11.23
2018-04-09T18:48:52.973Z,8.68
2018-04-09T18:51:20.440Z,7.15
2018-04-09T18:53:47.899Z,7.85
2018-04-09T18:56:15.366Z,7.37
2018-04-09T18:58:42.813Z,6.72
2018-04-09T19:01:10.274Z,7.12
2018-04-09T19:03:37.707Z,7.87
2018-04-09T19:06:05.177Z,8.20
2018-04-09T19:08:32.678Z,7.50
2018-04-09T19:11:00.135Z,6.40
2018-04-09T19:13:27.642Z,6.95
2018-04-09T19:15:55.882Z,6.90
2018-04-09T19:18:23.358Z,7.28
2018-04-09T19:20:50.877Z,7.20
2018-04-09T19:23:18.376Z,7.68
2018-04-09T19:25:45.888Z,7.82
2018-04-09T19:28:13.400Z,7.75
2018-04-09T19:30:41.054Z,7.57
2018-04-09T19:33:08.503Z,5.97
2018-04-09T19:38:42.542Z,6.00
2018-04-09T19:41:10.098Z,5.10
2018-04-09T19:43:37.612Z,4.62
2018-04-09T19:46:05.118Z,4.32
2018-04-09T19:48:32.565Z,4.22
2018-04-09T19:53:33.780Z,5.00
2018-04-09T19:56:01.201Z,5.68
2018-04-09T20:01:31.598Z,5.47
2018-04-09T20:03:59.170Z,5.28
2018-04-09T20:06:26.947Z,4.72
2018-04-09T20:08:54.534Z,4.72
2018-04-09T20:11:22.853Z,4.20
2018-04-09T20:13:51.200Z,4.00
2018-04-09T20:16:19.608Z,3.90
2018-04-09T20:18:48.155Z,4.68
2018-04-09T20:21:15.735Z,3.72
2018-04-09T20:23:44.075Z,4.32
2018-04-09T20:26:13.355Z,3.53
2018-04-09T20:28:40.982Z,3.55
2018-04-09T20:31:09.647Z,3.97
2018-04-09T20:33:37.216Z,4.03
2018-04-09T20:36:05.565Z,3.80
2018-04-09T20:38:33.128Z,4.20
2018-04-09T20:41:00.777Z,4.00
2018-04-09T20:43:28.382Z,5.10
2018-04-09T20:45:55.974Z,4.78
2018-04-09T21:05:43.715Z,5.93
2018-04-09T21:08:11.304Z,8.93
2018-04-09T21:10:38.937Z,9.32
2018-04-09T21:13:07.222Z,8.85
2018-04-09T21:15:34.817Z,10.52
2018-04-09T21:18:02.410Z,11.73
2018-04-09T21:20:30.443Z,9.07
2018-04-09T21:22:58.052Z,8.30
2018-04-09T21:25:25.652Z,7.35
2018-04-09T21:27:53.240Z,6.25
2018-04-09T21:30:20.882Z,5.30
2018-04-09T21:32:49.683Z,4.87
2018-04-09T21:35:17.262Z,5.22
2018-04-09T21:37:44.913Z,4.47
2018-04-09T21:40:13.451Z,4.93
2018-04-09T21:42:41.000Z,4.95
2018-04-09T21:45:08.593Z,4.93
2018-04-09T21:47:36.314Z,4.62
2018-04-09T21:50:03.925Z,4.75
2018-04-09T21:52:32.255Z,4.80
2018-04-09T21:54:59.824Z,4.45
2018-04-09T21:57:27.392Z,4.22
2018-04-09T21:59:55.010Z,4.55
2018-04-09T22:02:22.637Z,4.90
2018-04-09T22:04:50.241Z,4.20
2018-04-09T22:07:17.772Z,4.20
2018-04-09T22:09:45.332Z,4.30
2018-04-09T22:12:12.894Z,4.18
2018-04-09T22:14:40.474Z,4.00
2018-04-09T22:17:08.972Z,4.15
2018-04-09T22:19:36.541Z,4.05
2018-04-09T22:22:04.165Z,4.43
2018-04-09T22:24:33.053Z,5.30
2018-04-09T22:27:00.691Z,5.32
2018-04-09T22:29:28.283Z,5.78
2018-04-09T22:31:55.846Z,5.60
2018-04-09T22:34:23.447Z,4.50
2018-04-09T22:36:51.048Z,5.20
2018-04-09T22:39:18.619Z,4.57
2018-04-09T22:41:46.225Z,4.22
2018-04-09T22:44:13.976Z,4.85
2018-04-09T22:46:42.850Z,4.53
2018-04-09T22:49:10.429Z,4.78
2018-04-09T22:51:38.888Z,4.87
2018-04-09T22:54:06.472Z,4.87
2018-04-09T22:56:34.060Z,4.75
2018-04-09T22:59:02.003Z,5.10
2018-04-09T23:01:29.574Z,5.10
2018-04-09T23:03:57.931Z,4.97
2018-04-09T23:06:26.296Z,5.37
2018-04-09T23:08:53.841Z,4.85
2018-04-09T23:11:21.458Z,5.30
2018-04-09T23:13:49.049Z,5.65
2018-04-09T23:16:17.362Z,5.40
2018-04-09T23:18:44.959Z,5.95
2018-04-09T23:21:12.551Z,5.87
2018-04-09T23:23:40.162Z,5.25
2018-04-09T23:26:08.516Z,5.70
2018-04-09T23:28:36.110Z,5.90
2018-04-09T23:31:04.993Z,5.15
2018-04-09T23:33:32.833Z,5.25
2018-04-09T23:36:00.378Z,5.18
2018-04-09T23:38:27.982Z,5.45
2018-04-09T23:40:56.402Z,5.47
2018-04-09T23:43:25.499Z,5.22
2018-04-09T23:45:53.738Z,5.37
2018-04-09T23:48:21.349Z,5.80
2018-04-09T23:50:48.943Z,6.30
2018-04-09T23:53:16.513Z,5.90
2018-04-09T23:55:44.320Z,6.03
2018-04-09T23:58:11.917Z,6.20
